Time;durP1;ratioP1;P1;durP2;ratioP2;P2;SDS_P1;SDS_P2;PMS_P1;PMS_P2;Temp;Humidity;BMP_temperature;BMP_pressure;BME280_temperature;BME280_humidity;BME280_pressure;Samples;Min_cycle;Max_cycle;Signal;HPM_P1;HPM_P2
2022/05/01 00:00:51;;;;;;;0.95;0.95;;;;;;;20.61;38.42;102301.09;5013809;28;20092;-77
2022/05/01 00:03:32;;;;;;;1.10;1.10;;;;;;;20.60;38.30;102299.41;5013575;28;20037;-77
2022/05/01 00:05:59;;;;;;;0.90;0.90;;;;;;;20.61;38.16;102297.47;5013459;28;20038;-77
2022/05/01 00:08:24;;;;;;;1.02;1.02;;;;;;;20.61;38.29;102301.09;5013451;28;20030;-77
2022/05/01 00:10:50;;;;;;;1.02;1.00;;;;;;;20.61;38.35;102305.75;5013480;28;20030;-77
2022/05/01 00:13:15;;;;;;;1.00;1.00;;;;;;;20.61;38.27;102300.22;5012278;28;20029;-77
2022/05/01 00:15:42;;;;;;;0.70;0.70;;;;;;;20.61;38.45;102303.00;5012214;28;20466;-77
2022/05/01 00:18:07;;;;;;;1.00;1.00;;;;;;;20.60;38.56;102298.59;5013353;28;20054;-76
2022/05/01 00:20:33;;;;;;;0.85;0.85;;;;;;;20.60;38.39;102304.09;5012044;28;20037;-76
2022/05/01 00:22:58;;;;;;;0.88;0.88;;;;;;;20.60;38.34;102306.84;5012293;28;20034;-76
2022/05/01 00:25:24;;;;;;;1.15;1.15;;;;;;;20.61;38.62;102303.00;5013261;28;20461;-76
2022/05/01 00:27:49;;;;;;;1.10;1.10;;;;;;;20.59;38.52;102303.25;5013355;28;20421;-77
2022/05/01 00:30:14;;;;;;;1.10;1.10;;;;;;;20.60;38.62;102313.19;5012054;28;20030;-77
2022/05/01 00:38:07;;;;;;;1.40;1.25;;;;;;;20.59;38.56;102299.66;5013090;28;20127;-77
2022/05/01 00:40:33;;;;;;;1.00;1.00;;;;;;;20.57;38.47;102294.38;5013050;28;20466;-77
2022/05/01 00:43:05;;;;;;;1.30;1.20;;;;;;;20.58;38.17;102293.31;5013248;28;20034;-76
2022/05/01 00:45:31;;;;;;;0.80;0.80;;;;;;;20.57;38.55;102297.16;5013522;28;20489;-77
2022/05/01 00:47:57;;;;;;;1.25;1.15;;;;;;;20.59;38.61;102296.91;5012547;28;20492;-77
2022/05/01 00:50:23;;;;;;;1.10;1.10;;;;;;;20.57;38.64;102290.81;5012882;28;20109;-77
2022/05/01 00:52:48;;;;;;;1.10;1.10;;;;;;;20.57;38.39;102296.31;5012846;28;20034;-77
2022/05/01 00:55:15;;;;;;;1.00;1.00;;;;;;;20.57;38.48;102286.13;5012812;28;20033;-77
2022/05/01 00:57:42;;;;;;;0.95;0.90;;;;;;;20.57;38.54;102288.88;5011506;28;20113;-77
2022/05/01 01:00:07;;;;;;;1.00;1.00;;;;;;;20.57;38.39;102288.06;5013282;28;20030;-77
2022/05/01 01:02:33;;;;;;;0.73;0.73;;;;;;;20.57;38.43;102282.53;5012641;28;20508;-77
2022/05/01 01:04:58;;;;;;;1.23;1.08;;;;;;;20.57;38.56;102282.53;5012891;28;20026;-76
2022/05/01 01:07:27;;;;;;;1.38;1.20;;;;;;;20.57;38.60;102288.06;5012518;28;20493;-77
2022/05/01 01:09:52;;;;;;;1.40;1.40;;;;;;;20.56;38.57;102278.91;5012860;28;20069;-77
2022/05/01 01:15:09;;;;;;;0.95;0.95;;;;;;;20.56;38.64;102287.19;5011569;28;20052;-77
2022/05/01 01:17:43;;;;;;;1.27;0.82;;;;;;;20.56;38.44;102280.84;5010073;28;20061;-77
2022/05/01 01:20:12;;;;;;;1.10;1.08;;;;;;;20.56;38.36;102283.63;5011229;28;20040;-77
2022/05/01 01:22:44;;;;;;;1.13;1.13;;;;;;;20.56;38.61;102281.69;5012655;28;20678;-77
2022/05/01 01:25:10;;;;;;;0.98;0.98;;;;;;;20.55;38.72;102284.69;5012943;28;20074;-76
2022/05/01 01:27:38;;;;;;;1.10;1.10;;;;;;;20.54;38.61;102281.09;5012157;28;20025;-76
2022/05/01 01:32:49;;;;;;;1.00;1.00;;;;;;;20.55;38.67;102279.16;5012434;28;20045;-76
2022/05/01 01:35:17;;;;;;;1.52;1.42;;;;;;;20.54;38.69;102278.34;5012983;28;20058;-76
2022/05/01 01:37:47;;;;;;;0.95;0.95;;;;;;;20.54;38.72;102278.34;5012128;28;20026;-76
2022/05/01 01:40:23;;;;;;;1.20;1.20;;;;;;;20.54;38.53;102283.03;5010551;28;20065;-76
2022/05/01 01:42:50;;;;;;;1.23;1.20;;;;;;;20.54;38.78;102275.59;5012091;28;20030;-76
2022/05/01 01:45:17;;;;;;;0.90;0.90;;;;;;;20.54;38.56;102277.53;5012287;28;20037;-76
2022/05/01 01:47:49;;;;;;;1.27;1.17;;;;;;;20.54;38.52;102272.00;5012501;28;20037;-77
2022/05/01 01:50:15;;;;;;;1.05;1.05;;;;;;;20.54;38.69;102274.75;5012302;28;20120;-76
2022/05/01 01:52:46;;;;;;;1.42;1.30;;;;;;;20.53;38.74;102271.16;5012196;28;20072;-77
2022/05/01 01:55:14;;;;;;;1.05;0.95;;;;;;;20.53;38.76;102271.16;5012202;28;20026;-77
2022/05/01 01:57:40;;;;;;;1.00;1.00;;;;;;;20.53;38.61;102273.91;5011863;28;20057;-77
2022/05/01 02:00:08;;;;;;;1.10;1.10;;;;;;;20.53;38.65;102273.91;5011807;28;20060;-77
2022/05/01 02:02:33;;;;;;;1.05;1.05;;;;;;;20.52;38.64;102274.97;5011972;28;20029;-77
2022/05/01 02:04:59;;;;;;;1.00;1.00;;;;;;;20.53;38.76;102276.66;5010873;28;20389;-77
2022/05/01 02:07:24;;;;;;;1.10;1.10;;;;;;;20.52;38.67;102277.75;5011644;28;20058;-77
2022/05/01 02:09:49;;;;;;;1.00;1.00;;;;;;;20.51;38.82;102274.16;5011697;28;20049;-77
2022/05/01 02:12:15;;;;;;;1.40;1.30;;;;;;;20.53;38.79;102270.31;5011647;28;20057;-77
2022/05/01 02:14:41;;;;;;;1.00;1.00;;;;;;;20.51;38.65;102276.09;5010710;28;20041;-77
2022/05/01 02:17:07;;;;;;;1.02;1.02;;;;;;;20.52;38.85;102269.47;5011301;28;20554;-77
2022/05/01 02:19:32;;;;;;;1.15;1.10;;;;;;;20.51;38.54;102268.66;5010172;28;20081;-77
2022/05/01 02:21:58;;;;;;;1.33;1.23;;;;;;;20.51;38.67;102267.81;5011789;28;20036;-77
2022/05/01 02:24:25;;;;;;;0.98;0.98;;;;;;;20.51;38.64;102265.88;5010315;28;20026;-77
2022/05/01 02:26:51;;;;;;;1.30;1.20;;;;;;;20.51;38.83;102267.81;5010131;28;20514;-77
2022/05/01 02:29:16;;;;;;;1.10;1.10;;;;;;;20.49;38.64;102261.69;5011457;28;20109;-77
2022/05/01 02:31:44;;;;;;;1.13;1.10;;;;;;;20.50;38.61;102252.34;5009857;28;20033;-77
2022/05/01 02:34:11;;;;;;;1.10;1.10;;;;;;;20.49;38.83;102251.53;5011229;28;20121;-77
2022/05/01 02:36:36;;;;;;;1.35;1.20;;;;;;;20.50;38.91;102253.19;5011312;28;20022;-77
2022/05/01 02:39:02;;;;;;;1.23;1.17;;;;;;;20.50;38.72;102249.59;5010306;28;20451;-77
2022/05/01 02:41:28;;;;;;;0.82;0.82;;;;;;;20.50;38.75;102244.91;5011810;28;20040;-77
2022/05/01 02:43:56;;;;;;;1.27;1.17;;;;;;;20.50;38.90;102246.84;5011987;28;20493;-76
2022/05/01 02:46:22;;;;;;;1.17;1.10;;;;;;;20.49;38.91;102240.50;5011430;28;20091;-76
2022/05/01 02:48:47;;;;;;;1.33;1.23;;;;;;;20.49;38.84;102245.16;5010903;28;20034;-76
2022/05/01 02:51:12;;;;;;;1.27;1.20;;;;;;;20.49;38.80;102245.16;5009856;28;20124;-76
2022/05/01 02:53:38;;;;;;;1.30;1.20;;;;;;;20.48;38.85;102238.81;4993832;28;20385;-76
2022/05/01 02:56:04;;;;;;;1.13;1.08;;;;;;;20.49;38.80;102245.16;5009904;28;20030;-76
2022/05/01 02:58:30;;;;;;;1.00;1.00;;;;;;;20.48;38.90;102249.84;5011036;28;20112;-76
2022/05/01 03:00:56;;;;;;;1.15;1.05;;;;;;;20.48;38.74;102244.34;5011462;28;20069;-77
2022/05/01 03:03:23;;;;;;;1.20;1.20;;;;;;;20.47;38.65;102241.81;5009562;28;20061;-76
2022/05/01 03:05:52;;;;;;;1.17;1.17;;;;;;;20.47;38.90;102239.91;5010961;28;20034;-77
2022/05/01 03:08:18;;;;;;;1.20;1.20;;;;;;;20.48;38.61;102240.75;5010833;28;20030;-76
2022/05/01 03:10:44;;;;;;;1.60;1.50;;;;;;;20.47;38.91;102236.31;5011157;28;20037;-76
2022/05/01 03:13:10;;;;;;;1.13;1.10;;;;;;;20.48;38.68;102235.22;4993451;28;20038;-76
2022/05/01 03:15:36;;;;;;;1.10;1.10;;;;;;;20.47;38.83;102236.31;5010764;28;20045;-76
2022/05/01 03:23:30;;;;;;;1.08;1.08;;;;;;;20.46;38.86;102237.38;5011304;28;20507;-76
2022/05/01 03:25:57;;;;;;;1.13;1.10;;;;;;;20.45;38.81;102233.81;5009552;28;20116;-76
2022/05/01 03:28:23;;;;;;;1.40;1.30;;;;;;;20.46;38.75;102229.13;5009633;28;20038;-76
2022/05/01 03:30:48;;;;;;;1.27;1.27;;;;;;;20.46;38.98;102229.13;5010280;28;20368;-76
2022/05/01 03:33:14;;;;;;;1.30;1.20;;;;;;;20.45;38.91;102225.53;5010650;28;20468;-76
2022/05/01 03:35:39;;;;;;;1.35;1.25;;;;;;;20.46;38.80;102226.34;5010561;28;20097;-78
2022/05/01 03:38:09;;;;;;;1.20;1.10;;;;;;;20.44;38.82;102221.09;5009308;28;20055;-78
2022/05/01 03:40:35;;;;;;;1.30;1.30;;;;;;;20.45;38.78;102222.78;5012782;28;20041;-78
2022/05/01 03:43:02;;;;;;;1.40;1.30;;;;;;;20.45;38.75;102219.19;5012692;28;20034;-77
2022/05/01 03:45:28;;;;;;;1.52;1.42;;;;;;;20.45;38.88;102213.69;5012931;28;20030;-77
2022/05/01 03:47:54;;;;;;;1.20;1.20;;;;;;;20.45;38.86;102222.78;5014064;28;20428;-78
2022/05/01 03:50:19;;;;;;;1.25;1.25;;;;;;;20.44;38.87;102217.50;5012557;28;20030;-77
2022/05/01 03:52:45;;;;;;;1.25;1.25;;;;;;;20.44;38.92;102223.84;4995917;28;20485;-77
2022/05/01 03:55:12;;;;;;;1.23;1.23;;;;;;;20.43;38.93;102222.19;5013734;28;20084;-77
2022/05/01 03:57:38;;;;;;;1.48;1.38;;;;;;;20.44;38.88;102228.53;5013940;28;20048;-77
2022/05/01 04:00:05;;;;;;;1.60;1.50;;;;;;;20.44;38.89;102226.59;5012674;28;20074;-77
2022/05/01 04:02:31;;;;;;;1.52;1.42;;;;;;;20.44;38.77;102220.28;5013092;28;20038;-78
2022/05/01 04:04:57;;;;;;;1.50;1.40;;;;;;;20.43;38.76;102227.72;5012692;28;20125;-77
2022/05/01 04:07:23;;;;;;;1.17;1.17;;;;;;;20.44;38.96;102223.03;4996689;28;20423;-77
2022/05/01 04:09:49;;;;;;;1.83;1.30;;;;;;;20.43;38.95;102227.72;5013390;28;20034;-77
2022/05/01 04:12:15;;;;;;;1.40;1.40;;;;;;;20.44;38.96;102223.03;5013458;28;20038;-77
2022/05/01 04:14:40;;;;;;;1.10;1.10;;;;;;;20.43;38.88;102218.59;5013698;28;20029;-77
2022/05/01 04:17:05;;;;;;;1.40;1.30;;;;;;;20.43;38.97;102224.97;5011857;28;20057;-77
2022/05/01 04:19:31;;;;;;;1.20;1.20;;;;;;;20.43;39.03;102218.59;5014008;28;20056;-78
2022/05/01 04:21:57;;;;;;;1.33;1.30;;;;;;;20.43;39.05;102224.09;5013378;28;20038;-77
2022/05/01 04:24:23;;;;;;;1.75;1.65;;;;;;;20.43;38.96;102218.59;5012132;28;20065;-77
2022/05/01 04:26:49;;;;;;;1.25;1.25;;;;;;;20.42;38.92;102222.44;5013237;28;20033;-77
2022/05/01 04:31:58;;;;;;;1.20;1.20;;;;;;;20.42;38.92;102211.44;5013137;28;20056;-76
2022/05/01 04:34:23;;;;;;;1.60;1.48;;;;;;;20.41;38.90;102216.09;5013166;28;20125;-76
2022/05/01 04:36:49;;;;;;;1.42;1.33;;;;;;;20.42;38.93;102216.94;5013396;28;20060;-77
2022/05/01 04:39:14;;;;;;;1.30;1.30;;;;;;;20.41;39.02;102218.84;5011917;28;20034;-77
2022/05/01 04:41:39;;;;;;;1.38;1.35;;;;;;;20.42;38.86;102214.19;5012547;28;20494;-77
2022/05/01 04:44:05;;;;;;;1.38;1.27;;;;;;;20.41;38.89;102218.84;5013281;28;20034;-77
2022/05/01 04:46:30;;;;;;;1.33;1.30;;;;;;;20.41;38.91;102220.78;4995509;28;20034;-77
2022/05/01 04:48:56;;;;;;;1.38;1.38;;;;;;;20.41;39.10;102220.78;5011706;28;20061;-76
2022/05/01 04:51:22;;;;;;;1.33;1.33;;;;;;;20.42;38.93;102222.44;5012215;28;20042;-77
2022/05/01 04:53:47;;;;;;;1.42;1.40;;;;;;;20.40;38.91;102222.66;5012862;28;20038;-76
2022/05/01 04:58:56;;;;;;;1.38;1.38;;;;;;;20.40;38.90;102228.19;5013085;28;20531;-77
2022/05/01 05:01:21;;;;;;;1.38;1.33;;;;;;;20.41;39.12;102231.78;5011509;28;20030;-77
2022/05/01 05:03:47;;;;;;;1.33;1.33;;;;;;;20.41;39.07;102231.78;5011533;28;20167;-78
2022/05/01 05:06:12;;;;;;;2.05;1.83;;;;;;;20.39;37.86;102229.28;5012962;28;20034;-77
2022/05/01 05:11:21;;;;;;;4.25;3.90;;;;;;;19.84;37.43;102229.88;5012636;28;20079;-71
2022/05/01 05:13:47;;;;;;;5.15;4.70;;;;;;;19.58;37.29;102232.91;5011603;28;20498;-75
2022/05/01 05:16:15;;;;;;;5.63;5.13;;;;;;;19.31;37.67;102232.59;5011432;28;20026;-76
2022/05/01 05:18:40;;;;;;;5.97;5.43;;;;;;;19.07;37.79;102234.50;5010858;28;20391;-75
2022/05/01 05:21:07;;;;;;;6.45;5.80;;;;;;;18.86;38.18;102228.50;5011800;28;20060;-75
2022/05/01 05:23:32;;;;;;;6.05;5.45;;;;;;;18.71;38.65;102233.63;5012921;28;20527;-70
2022/05/01 05:25:58;;;;;;;5.68;5.28;;;;;;;18.57;38.86;102236.56;5012861;28;20113;-72
2022/05/01 05:28:23;;;;;;;5.80;5.30;;;;;;;18.51;40.88;102239.41;5012830;28;20121;-70
2022/05/01 05:30:49;;;;;;;5.85;5.35;;;;;;;18.46;39.27;102240.13;5011047;28;20038;-72
2022/05/01 05:33:18;;;;;;;6.72;5.53;;;;;;;18.35;39.39;102246.41;5013106;28;20063;-72
2022/05/01 05:35:44;;;;;;;6.35;5.75;;;;;;;18.22;39.35;102259.28;5010958;28;20042;-72
2022/05/01 05:38:09;;;;;;;5.80;5.30;;;;;;;18.11;39.63;102259.22;4979300;28;20044;-72
2022/05/01 05:40:35;;;;;;;6.05;5.55;;;;;;;18.02;39.96;102255.94;4995100;28;20087;-72
2022/05/01 05:43:00;;;;;;;7.03;6.25;;;;;;;17.94;40.18;102251.63;5012125;28;20034;-71
2022/05/01 05:45:25;;;;;;;6.75;6.13;;;;;;;17.86;40.14;102255.50;5011812;28;20026;-72
2022/05/01 05:47:51;;;;;;;6.35;5.75;;;;;;;17.82;40.19;102257.03;5012242;28;20026;-73
2022/05/01 05:50:16;;;;;;;6.85;6.25;;;;;;;17.79;40.47;102257.47;5012022;28;20065;-72
2022/05/01 05:52:42;;;;;;;6.20;5.70;;;;;;;17.77;40.73;102258.78;5012516;28;20454;-74
2022/05/01 05:55:08;;;;;;;6.10;5.50;;;;;;;17.88;40.56;102256.09;5011889;28;20438;-74
2022/05/01 05:57:34;;;;;;;5.82;5.32;;;;;;;18.08;40.38;102259.69;5011903;28;20046;-74
2022/05/01 06:00:00;;;;;;;5.03;4.63;;;;;;;18.26;40.06;102262.38;5010714;28;20033;-73
2022/05/01 06:02:26;;;;;;;5.38;4.88;;;;;;;18.46;40.03;102264.84;5011057;28;20030;-73
2022/05/01 06:04:51;;;;;;;4.97;4.50;;;;;;;18.61;39.93;102263.59;5010804;28;20385;-73
2022/05/01 06:07:17;;;;;;;4.32;4.03;;;;;;;18.75;39.71;102259.56;5011484;28;20501;-73
2022/05/01 06:09:42;;;;;;;4.55;4.15;;;;;;;18.87;39.53;102263.19;5010365;28;20061;-73
2022/05/01 06:12:09;;;;;;;4.38;4.05;;;;;;;18.97;39.48;102262.63;5011689;28;20038;-73
2022/05/01 06:14:35;;;;;;;4.28;3.92;;;;;;;19.05;39.28;102255.91;5011592;28;20065;-74
2022/05/01 06:17:00;;;;;;;4.10;3.75;;;;;;;19.12;39.40;102256.66;5010143;28;20114;-74
2022/05/01 06:19:26;;;;;;;3.80;3.50;;;;;;;19.19;39.15;102259.25;5011920;28;20064;-73
2022/05/01 06:21:51;;;;;;;3.88;3.58;;;;;;;19.26;39.13;102268.22;5012069;28;20469;-74
2022/05/01 06:24:16;;;;;;;3.90;3.60;;;;;;;19.31;39.31;102265.63;5011272;28;20059;-74
2022/05/01 06:26:42;;;;;;;3.67;3.38;;;;;;;19.36;39.12;102256.63;5010541;28;20450;-74
2022/05/01 06:29:08;;;;;;;3.72;3.42;;;;;;;19.40;39.20;102263.31;5011402;28;20049;-74
2022/05/01 06:31:34;;;;;;;3.38;3.17;;;;;;;19.44;39.14;102270.88;5010425;28;20512;-74
2022/05/01 06:33:59;;;;;;;3.53;3.22;;;;;;;19.48;39.12;102265.72;5011643;28;20111;-74
2022/05/01 06:36:25;;;;;;;3.60;3.30;;;;;;;19.52;38.99;102268.84;5010464;28;20491;-74
2022/05/01 06:38:50;;;;;;;3.20;3.00;;;;;;;19.55;39.12;102271.09;5011276;28;20033;-74
2022/05/01 06:41:16;;;;;;;3.05;2.85;;;;;;;19.57;39.30;102272.50;4993808;28;20079;-74
2022/05/01 06:43:41;;;;;;;3.22;3.03;;;;;;;19.59;39.24;102270.38;5010929;28;20030;-74
2022/05/01 06:46:07;;;;;;;3.17;2.97;;;;;;;19.61;39.26;102273.72;5011359;28;20030;-73
2022/05/01 06:48:32;;;;;;;3.10;2.90;;;;;;;19.64;39.68;102272.41;5011053;28;20059;-74
2022/05/01 06:50:58;;;;;;;3.40;3.10;;;;;;;19.67;39.59;102282.09;5011148;28;20478;-74
2022/05/01 06:53:23;;;;;;;2.85;2.65;;;;;;;19.70;39.58;102276.94;5010200;28;20116;-74
2022/05/01 06:55:49;;;;;;;2.80;2.60;;;;;;;19.71;39.58;102281.38;5011608;28;20030;-75
2022/05/01 06:58:14;;;;;;;2.80;2.60;;;;;;;19.73;39.56;102278.38;5011222;28;20489;-75
2022/05/01 07:00:40;;;;;;;2.88;2.70;;;;;;;19.74;39.14;102282.81;5009758;28;20034;-75
2022/05/01 07:03:05;;;;;;;3.20;2.90;;;;;;;19.74;39.53;102274.53;5010598;28;20105;-75
2022/05/01 07:05:31;;;;;;;2.75;2.55;;;;;;;19.75;39.59;102268.78;5010693;28;20116;-75
2022/05/01 07:07:56;;;;;;;2.78;2.58;;;;;;;19.77;39.65;102272.13;5010920;28;20062;-75
2022/05/01 07:10:22;;;;;;;2.75;2.55;;;;;;;19.78;39.80;102273.00;4994149;28;20446;-74
2022/05/01 07:12:49;;;;;;;2.70;2.50;;;;;;;19.80;39.73;102273.59;5010870;28;20030;-74
2022/05/01 07:15:14;;;;;;;2.83;2.63;;;;;;;19.80;39.76;102277.19;5011338;28;20474;-74
2022/05/01 07:17:41;;;;;;;2.80;2.60;;;;;;;19.82;39.77;102279.69;5014104;28;20115;-74
2022/05/01 07:20:07;;;;;;;2.47;2.28;;;;;;;19.83;39.74;102277.75;5014902;28;20037;-75
2022/05/01 07:22:33;;;;;;;2.40;2.30;;;;;;;19.83;39.80;102278.63;5014206;28;20030;-76
2022/05/01 07:24:58;;;;;;;2.67;2.47;;;;;;;19.85;40.07;102279.19;5014270;28;20038;-76
2022/05/01 07:27:24;;;;;;;2.40;2.25;;;;;;;19.85;39.92;102279.19;5014237;28;20371;-76
2022/05/01 07:29:49;;;;;;;2.60;2.40;;;;;;;19.88;39.94;102292.47;5014006;28;20043;-76
2022/05/01 07:32:15;;;;;;;2.70;2.50;;;;;;;19.88;39.95;102277.88;5013763;28;20034;-76
2022/05/01 07:34:41;;;;;;;2.70;2.50;;;;;;;19.88;39.86;102286.16;5013815;28;20460;-76
2022/05/01 07:37:06;;;;;;;2.53;2.33;;;;;;;19.89;39.94;102283.16;5014031;28;20064;-76
2022/05/01 07:39:31;;;;;;;2.53;2.35;;;;;;;19.90;39.83;102286.72;5014023;28;20042;-75
2022/05/01 07:41:57;;;;;;;2.20;2.10;;;;;;;19.91;40.03;102289.25;5013988;28;20407;-76
2022/05/01 07:44:22;;;;;;;2.28;2.10;;;;;;;19.90;39.78;102282.06;5013910;28;20492;-76
2022/05/01 07:46:48;;;;;;;2.40;2.30;;;;;;;19.92;39.97;102292.84;5013313;28;20073;-76
2022/05/01 07:49:13;;;;;;;2.50;2.30;;;;;;;19.92;39.89;102290.09;5014050;28;20061;-75
2022/05/01 07:51:40;;;;;;;2.38;2.28;;;;;;;19.92;40.04;102287.34;4996258;28;20080;-75
2022/05/01 07:54:06;;;;;;;2.67;2.47;;;;;;;19.93;40.02;102286.25;5014037;28;20076;-75
2022/05/01 07:56:33;;;;;;;2.40;2.28;;;;;;;19.94;40.07;102283.25;5013277;28;20381;-75
2022/05/01 07:58:59;;;;;;;2.35;2.25;;;;;;;19.95;40.01;102282.16;5013704;28;20034;-75
2022/05/01 08:01:25;;;;;;;2.08;1.98;;;;;;;19.96;40.03;102283.00;5013609;28;20037;-74
2022/05/01 08:06:35;;;;;;;2.45;2.25;;;;;;;19.98;40.20;102270.66;5014178;28;20052;-77
2022/05/01 08:09:01;;;;;;;2.42;2.22;;;;;;;19.99;40.31;102277.03;5014220;28;20125;-77
2022/05/01 08:11:26;;;;;;;2.58;2.33;;;;;;;20.00;39.83;102270.41;5013522;28;20121;-76
2022/05/01 08:13:51;;;;;;;2.47;2.28;;;;;;;20.00;40.00;102273.16;5013164;28;20394;-76
2022/05/01 08:16:17;;;;;;;2.10;2.00;;;;;;;20.01;39.86;102272.09;5013441;28;20069;-76
2022/05/01 08:21:31;;;;;;;2.30;2.10;;;;;;;20.02;40.18;102261.91;5013940;28;20082;-77
2022/05/01 08:23:56;;;;;;;2.08;1.98;;;;;;;20.03;40.25;102271.84;5012037;28;20037;-76
2022/05/01 08:26:23;;;;;;;2.20;2.00;;;;;;;20.04;40.15;102259.75;5011562;28;20037;-76
2022/05/01 08:28:51;;;;;;;2.00;1.90;;;;;;;20.05;40.22;102266.91;4996338;28;20033;-77
2022/05/01 08:31:17;;;;;;;2.03;1.83;;;;;;;20.06;40.05;102260.34;5013678;28;20034;-76
2022/05/01 08:33:42;;;;;;;2.28;2.08;;;;;;;20.06;40.48;102260.34;5013906;28;20083;-76
2022/05/01 08:36:07;;;;;;;2.10;2.00;;;;;;;20.08;40.34;102263.72;5012274;28;20113;-76
2022/05/01 08:38:37;;;;;;;1.92;1.83;;;;;;;20.08;40.27;102266.47;5012657;28;20093;-77
2022/05/01 08:41:02;;;;;;;2.10;2.00;;;;;;;20.08;40.05;102267.28;5011772;28;20026;-76
2022/05/01 08:43:28;;;;;;;2.00;1.90;;;;;;;20.09;39.94;102260.69;5012946;28;20194;-76
2022/05/01 08:45:53;;;;;;;2.20;2.10;;;;;;;20.11;39.85;102266.78;5013003;28;20033;-76
2022/05/01 08:48:35;;;;;;;2.33;2.13;;;;;;;20.12;39.88;102271.22;5012607;28;20522;-76
2022/05/01 08:51:04;;;;;;;2.15;2.00;;;;;;;20.14;39.68;102259.97;5013458;28;20068;-77
2022/05/01 08:53:31;;;;;;;1.83;1.73;;;;;;;20.12;39.62;102260.22;5012619;28;20037;-76
2022/05/01 08:55:57;;;;;;;1.95;1.85;;;;;;;20.14;39.49;102259.97;5012865;28;20462;-77
2022/05/01 08:58:23;;;;;;;1.75;1.65;;;;;;;20.15;39.41;102256.97;5011628;28;20072;-76
2022/05/01 09:00:51;;;;;;;2.17;2.08;;;;;;;20.15;38.97;102256.97;5011189;28;20045;-76
2022/05/01 09:03:18;;;;;;;1.92;1.83;;;;;;;20.17;39.00;102259.47;5011514;28;20041;-76
2022/05/01 09:05:44;;;;;;;1.70;1.60;;;;;;;20.19;38.87;102259.22;4995260;28;20485;-76
2022/05/01 09:08:09;;;;;;;2.00;1.90;;;;;;;20.19;38.75;102259.22;5012854;28;20037;-76
2022/05/01 09:10:36;;;;;;;1.67;1.60;;;;;;;20.19;38.29;102253.72;5012349;28;20042;-76
2022/05/01 09:13:01;;;;;;;1.70;1.60;;;;;;;20.19;38.41;102259.22;5012805;28;20054;-76
2022/05/01 09:15:30;;;;;;;1.80;1.70;;;;;;;20.20;38.29;102256.22;5012872;28;20087;-76
2022/05/01 09:18:02;;;;;;;1.58;1.48;;;;;;;20.21;38.29;102260.66;5012641;28;20188;-76
2022/05/01 09:20:27;;;;;;;1.80;1.70;;;;;;;20.22;37.87;102253.22;5012033;28;20107;-77
2022/05/01 09:22:54;;;;;;;1.65;1.55;;;;;;;20.23;40.26;102257.66;5012137;28;20477;-78
2022/05/01 09:25:25;;;;;;;1.98;1.77;;;;;;;20.23;39.18;102254.91;5012371;28;20037;-78
2022/05/01 09:27:56;;;;;;;1.70;1.60;;;;;;;20.23;38.77;102252.97;5012609;28;20091;-76
2022/05/01 09:30:31;;;;;;;1.30;1.30;;;;;;;20.24;38.56;102251.91;5011395;28;20057;-76
2022/05/01 09:32:58;;;;;;;1.52;1.42;;;;;;;20.24;38.69;102256.53;5011997;28;20030;-76
2022/05/01 09:35:33;;;;;;;1.30;1.30;;;;;;;20.27;38.58;102262.41;5010994;28;20038;-76
2022/05/01 09:38:25;;;;;;;1.70;1.60;;;;;;;20.30;38.89;102261.09;5011194;28;20026;-76
2022/05/01 09:40:58;;;;;;;;;;;;;;;20.31;38.73;102257.25;5012656;28;20071;-76
2022/05/01 09:43:45;;;;;;;1.33;1.33;;;;;;;20.31;38.96;102260.84;5012107;28;19913;-76
2022/05/01 09:46:22;;;;;;;1.65;1.55;;;;;;;20.31;39.18;102258.09;5012589;28;20026;-76
2022/05/01 09:49:16;;;;;;;1.60;1.50;;;;;;;20.32;39.41;102254.22;5012034;28;20029;-76
2022/05/01 09:51:46;;;;;;;1.60;1.50;;;;;;;20.33;39.59;102252.34;5012583;28;20036;-76
2022/05/01 09:54:18;;;;;;;1.73;1.63;;;;;;;20.33;39.46;102255.09;5011967;28;20026;-76
2022/05/01 09:56:47;;;;;;;;;;;;;;;20.35;39.22;102261.19;5012643;28;20023;-76
2022/05/01 09:59:14;;;;;;;1.60;1.50;;;;;;;20.34;39.61;102253.97;5012348;28;19909;-76
2022/05/01 10:01:40;;;;;;;1.40;1.40;;;;;;;20.35;39.78;102250.16;5012207;28;20075;-76
2022/05/01 10:04:06;;;;;;;1.58;1.48;;;;;;;20.36;39.54;102248.22;5011118;28;20389;-76
2022/05/01 10:06:32;;;;;;;1.60;1.50;;;;;;;20.37;39.76;102250.72;5011073;28;20026;-76
2022/05/01 10:08:59;;;;;;;1.27;1.27;;;;;;;20.37;39.61;102252.66;5010674;28;20366;-76
2022/05/01 10:11:26;;;;;;;1.23;1.23;;;;;;;20.39;38.99;102250.47;5011701;28;20470;-75
2022/05/01 10:13:51;;;;;;;1.83;1.73;;;;;;;20.38;39.10;102243.31;5011587;28;20497;-75
2022/05/01 10:16:17;;;;;;;1.80;1.70;;;;;;;20.44;39.38;102245.06;5011636;28;20189;-73
2022/05/01 10:18:45;;;;;;;1.52;1.45;;;;;;;20.52;39.66;102230.88;5011692;28;20505;-76
2022/05/01 10:21:11;;;;;;;1.55;1.50;;;;;;;20.65;39.49;102232.47;5011250;28;20438;-76
2022/05/01 10:23:38;;;;;;;1.80;1.70;;;;;;;20.81;39.32;102237.19;5010279;28;20053;-76
2022/05/01 10:26:10;;;;;;;1.65;1.55;;;;;;;20.94;39.04;102232.44;5011503;28;20037;-76
2022/05/01 10:29:01;;;;;;;1.73;1.60;;;;;;;21.10;38.70;102231.59;5011409;28;20030;-75
2022/05/01 10:34:45;;;;;;;1.42;1.40;;;;;;;21.12;38.29;102226.63;5011389;28;20071;-75
2022/05/01 10:37:40;;;;;;;1.20;1.20;;;;;;;21.09;38.23;102232.66;5011635;28;20034;-75
2022/05/01 10:40:08;;;;;;;1.15;1.15;;;;;;;21.05;37.93;102227.91;5011361;28;20427;-75
2022/05/01 10:42:45;;;;;;;2.67;1.38;;;;;;;21.01;38.43;102222.06;5011718;28;20033;-75
2022/05/01 10:45:23;;;;;;;1.02;1.02;;;;;;;20.99;38.16;102222.31;5011453;28;20030;-75
2022/05/01 10:47:51;;;;;;;1.25;1.25;;;;;;;20.96;38.36;102220.03;5010811;28;20534;-75
2022/05/01 10:50:28;;;;;;;0.95;0.95;;;;;;;20.96;38.13;102219.22;5010938;28;20068;-74
2022/05/01 10:53:08;;;;;;;1.30;1.20;;;;;;;20.96;38.11;102216.47;5011173;28;20109;-75
2022/05/01 10:55:52;;;;;;;1.27;1.20;;;;;;;20.94;38.27;102211.19;5011049;28;20038;-75
2022/05/01 10:58:23;;;;;;;1.10;1.10;;;;;;;20.92;38.31;102212.53;5010005;28;20034;-75
2022/05/01 11:00:50;;;;;;;1.27;1.27;;;;;;;20.92;38.17;102204.25;5011362;28;20524;-75
2022/05/01 11:03:24;;;;;;;1.20;1.20;;;;;;;20.92;38.37;102201.50;5010836;28;20045;-75
2022/05/01 11:05:55;;;;;;;1.33;1.23;;;;;;;20.91;38.27;102199.84;5011498;28;20034;-74
2022/05/01 11:08:23;;;;;;;1.20;1.20;;;;;;;20.90;38.45;102198.16;5011151;28;20101;-75
2022/05/01 11:10:51;;;;;;;1.40;1.40;;;;;;;20.89;38.54;102207.50;5009705;28;20033;-75
2022/05/01 11:13:20;;;;;;;1.00;1.00;;;;;;;20.89;38.46;102194.59;5010910;28;20042;-76
2022/05/01 11:15:50;;;;;;;1.33;1.23;;;;;;;20.89;38.35;102200.09;5010885;28;20037;-76
2022/05/01 11:18:26;;;;;;;1.30;1.20;;;;;;;20.88;38.48;102192.91;5010970;28;20095;-75
2022/05/01 11:20:52;;;;;;;1.15;1.15;;;;;;;20.88;38.73;102195.66;5010862;28;20029;-78
2022/05/01 11:23:34;;;;;;;1.33;1.23;;;;;;;20.90;38.13;102192.66;5010936;28;20042;-75
2022/05/01 11:26:14;;;;;;;1.30;1.30;;;;;;;20.88;38.29;102183.81;5009504;28;20026;-77
2022/05/01 11:29:13;;;;;;;1.38;1.33;;;;;;;20.87;37.99;102179.38;5010606;28;20026;-76
2022/05/01 11:31:38;;;;;;;1.10;1.10;;;;;;;20.85;38.16;102183.19;5010884;28;20485;-76
2022/05/01 11:34:16;;;;;;;1.27;1.20;;;;;;;20.88;38.20;102181.03;5010301;28;20076;-76
2022/05/01 11:36:53;;;;;;;1.30;1.20;;;;;;;20.87;37.98;102171.91;5009795;28;20030;-76
2022/05/01 11:39:22;;;;;;;1.40;1.30;;;;;;;20.85;38.01;102168.59;5010561;28;20038;-75
2022/05/01 11:42:00;;;;;;;1.50;1.40;;;;;;;20.87;38.20;102171.09;5009772;28;20339;-75
2022/05/01 11:44:27;;;;;;;1.17;1.08;;;;;;;20.87;37.70;102160.06;5010781;28;20030;-76
2022/05/01 11:46:57;;;;;;;1.10;1.10;;;;;;;20.87;37.92;102165.56;5010265;28;20061;-75
2022/05/01 11:49:22;;;;;;;1.10;1.10;;;;;;;20.88;37.98;102161.72;5010467;28;20037;-75
2022/05/01 11:51:50;;;;;;;1.40;1.30;;;;;;;20.88;37.83;102158.97;5010465;28;20034;-76
2022/05/01 11:54:15;;;;;;;1.08;1.08;;;;;;;20.88;38.07;102158.97;5009930;28;20030;-76
2022/05/01 12:02:25;;;;;;;1.70;1.60;;;;;;;20.90;38.19;102160.38;5013275;28;20048;-75
2022/05/01 12:04:51;;;;;;;1.05;1.05;;;;;;;20.90;38.06;102156.78;5013417;28;20034;-76
2022/05/01 12:07:18;;;;;;;1.00;1.00;;;;;;;20.92;38.02;102149.09;5011737;28;20084;-75